createdAt,value
2018-12-31T00:07:24.188Z,83.31
2018-12-31T00:12:27.757Z,83.55
2018-12-31T00:17:31.126Z,83.72
2018-12-31T00:22:34.686Z,83.45
2018-12-31T00:27:38.792Z,83.21
2018-12-31T00:32:42.260Z,84.28
2018-12-31T00:37:47.515Z,84.62
2018-12-31T00:42:50.990Z,84.72
2018-12-31T00:47:54.434Z,85.54
2018-12-31T00:52:58.349Z,84.60
2018-12-31T00:58:02.112Z,84.95
2018-12-31T01:03:05.649Z,85.42
2018-12-31T01:08:09.141Z,83.90
2018-12-31T01:13:12.691Z,84.68
2018-12-31T01:18:16.213Z,84.54
2018-12-31T01:23:19.724Z,84.96
2018-12-31T01:28:23.275Z,84.71
2018-12-31T01:33:27.722Z,85.08
2018-12-31T01:38:31.196Z,84.54
2018-12-31T01:43:34.687Z,84.95
2018-12-31T01:48:38.146Z,86.09
2018-12-31T01:53:41.581Z,85.47
2018-12-31T01:58:45.123Z,84.51
2018-12-31T02:03:49.145Z,85.05
2018-12-31T02:08:52.624Z,85.98
2018-12-31T02:13:55.956Z,85.65
2018-12-31T02:18:59.502Z,85.83
2018-12-31T02:24:03.060Z,85.92
2018-12-31T02:29:06.646Z,85.44
2018-12-31T02:34:10.123Z,84.99
2018-12-31T02:39:13.520Z,86.53
2018-12-31T02:44:17.194Z,86.35
2018-12-31T02:49:20.751Z,86.29
2018-12-31T02:54:24.195Z,85.57
2018-12-31T02:59:27.616Z,86.24
2018-12-31T03:04:31.125Z,86.85
2018-12-31T03:09:34.674Z,86.91
2018-12-31T03:14:37.988Z,86.64
2018-12-31T03:19:41.269Z,86.02
2018-12-31T03:24:44.679Z,85.86
2018-12-31T03:29:48.261Z,85.98
2018-12-31T03:34:51.919Z,85.87
2018-12-31T03:39:55.460Z,86.00
2018-12-31T03:44:58.828Z,85.68
2018-12-31T03:50:02.314Z,85.85
2018-12-31T03:55:05.928Z,85.82
2018-12-31T04:00:09.536Z,86.45
2018-12-31T04:05:13.295Z,86.47
2018-12-31T04:10:16.623Z,86.32
2018-12-31T04:15:20.001Z,86.41
2018-12-31T04:20:23.444Z,86.68
2018-12-31T04:25:26.790Z,85.46
2018-12-31T04:30:30.288Z,85.52
2018-12-31T04:35:33.553Z,86.81
2018-12-31T04:40:36.897Z,86.89
2018-12-31T04:45:40.285Z,86.17
2018-12-31T04:50:43.651Z,86.47
2018-12-31T04:55:46.993Z,87.21
2018-12-31T05:00:50.465Z,87.20
2018-12-31T05:05:53.816Z,86.74
2018-12-31T05:10:58.450Z,87.22
2018-12-31T05:16:01.745Z,86.74
2018-12-31T05:21:05.101Z,86.54
2018-12-31T05:26:08.447Z,86.29
2018-12-31T05:31:11.853Z,86.77
2018-12-31T05:36:15.298Z,86.86
2018-12-31T05:41:18.578Z,87.11
2018-12-31T05:46:22.037Z,86.27
2018-12-31T05:51:25.465Z,85.68
2018-12-31T05:56:28.651Z,86.19
2018-12-31T06:01:32.140Z,86.36
2018-12-31T06:06:35.516Z,85.00
2018-12-31T06:11:38.950Z,84.91
2018-12-31T06:16:42.374Z,85.06
2018-12-31T06:21:45.665Z,85.41
2018-12-31T06:26:49.020Z,86.38
2018-12-31T06:31:52.723Z,86.06
2018-12-31T06:36:56.331Z,85.87
2018-12-31T06:41:59.873Z,85.33
2018-12-31T06:47:05.274Z,85.42
2018-12-31T06:52:08.963Z,85.40
2018-12-31T06:57:13.647Z,85.33
2018-12-31T07:02:17.124Z,84.40
2018-12-31T07:07:20.732Z,83.70
2018-12-31T07:12:24.114Z,83.41
2018-12-31T07:17:27.668Z,83.22
2018-12-31T07:22:31.243Z,82.76
2018-12-31T07:27:34.891Z,82.99
2018-12-31T07:32:38.545Z,81.78
2018-12-31T07:37:42.392Z,80.31
2018-12-31T07:42:46.199Z,81.71
2018-12-31T07:47:52.118Z,81.65
2018-12-31T07:52:55.624Z,81.41
2018-12-31T07:58:00.371Z,79.82
2018-12-31T08:03:03.854Z,78.34
2018-12-31T08:08:07.283Z,77.23
2018-12-31T08:13:11.099Z,76.39
2018-12-31T08:18:14.674Z,76.98
2018-12-31T08:23:18.201Z,76.70
2018-12-31T08:28:21.560Z,75.68
2018-12-31T08:33:25.017Z,74.89
2018-12-31T08:38:28.485Z,73.82
2018-12-31T08:43:32.151Z,71.72
2018-12-31T08:48:37.344Z,71.25
2018-12-31T08:53:40.780Z,72.46
2018-12-31T08:58:44.504Z,74.33
2018-12-31T09:03:47.939Z,74.62
2018-12-31T09:08:51.468Z,73.54
2018-12-31T09:13:54.995Z,73.86
2018-12-31T09:18:58.285Z,74.70
2018-12-31T09:24:01.682Z,73.95
2018-12-31T09:29:04.999Z,74.99
2018-12-31T09:34:08.357Z,74.52
2018-12-31T09:39:11.834Z,74.23
2018-12-31T09:44:15.085Z,75.10
2018-12-31T09:49:19.540Z,76.73
2018-12-31T09:54:22.976Z,76.88
2018-12-31T09:59:26.253Z,74.88
2018-12-31T10:04:29.739Z,73.82
2018-12-31T10:09:33.214Z,74.89
2018-12-31T10:14:36.537Z,72.60
2018-12-31T10:19:39.941Z,72.38
2018-12-31T10:24:43.245Z,71.35
2018-12-31T10:29:47.182Z,71.38
2018-12-31T10:34:50.628Z,72.11
2018-12-31T10:39:53.990Z,71.13
2018-12-31T10:44:57.409Z,70.72
2018-12-31T10:50:01.682Z,70.49
2018-12-31T10:55:07.091Z,71.46
2018-12-31T11:00:10.595Z,70.47
2018-12-31T11:05:15.710Z,66.67
2018-12-31T11:10:19.615Z,68.26
2018-12-31T11:15:23.078Z,70.40
2018-12-31T11:20:26.412Z,69.71
2018-12-31T11:25:29.907Z,68.23
2018-12-31T11:30:33.275Z,66.38
2018-12-31T11:35:36.958Z,65.47
2018-12-31T11:40:40.292Z,64.66
2018-12-31T11:45:43.584Z,65.32
2018-12-31T11:50:51.669Z,66.49
2018-12-31T11:55:55.345Z,65.18
2018-12-31T12:00:58.638Z,66.49
2018-12-31T12:06:02.396Z,66.41
2018-12-31T12:11:05.822Z,68.02
2018-12-31T12:16:09.475Z,69.92
2018-12-31T12:21:12.830Z,67.05
2018-12-31T12:26:16.379Z,67.10
2018-12-31T12:31:19.916Z,75.76
2018-12-31T12:36:23.689Z,77.37
2018-12-31T12:41:27.091Z,77.15
2018-12-31T12:46:31.095Z,74.73
2018-12-31T12:51:34.506Z,75.36
2018-12-31T12:56:38.110Z,74.72
2018-12-31T13:01:41.532Z,74.26
2018-12-31T13:06:45.156Z,73.83
2018-12-31T13:11:48.499Z,73.18
2018-12-31T13:16:52.594Z,71.75
2018-12-31T13:21:56.100Z,71.47
2018-12-31T13:26:59.317Z,70.85
2018-12-31T13:32:03.674Z,72.51
2018-12-31T13:37:07.101Z,72.72
2018-12-31T13:42:10.577Z,71.48
2018-12-31T13:47:13.943Z,71.35
2018-12-31T13:52:18.217Z,71.05
2018-12-31T13:57:21.654Z,71.43
2018-12-31T14:02:24.995Z,71.41
2018-12-31T14:07:28.677Z,71.46
2018-12-31T14:12:32.196Z,71.50
2018-12-31T14:17:36.087Z,71.66
2018-12-31T14:22:39.588Z,71.22
2018-12-31T14:27:42.853Z,71.65
2018-12-31T14:32:46.296Z,72.37
2018-12-31T14:37:49.746Z,72.22
2018-12-31T14:42:53.215Z,72.09
2018-12-31T14:47:56.526Z,73.04
2018-12-31T14:52:59.961Z,73.25
2018-12-31T14:58:03.520Z,74.16
2018-12-31T15:03:07.079Z,74.47
2018-12-31T15:08:10.446Z,75.19
2018-12-31T15:13:14.216Z,76.04
2018-12-31T15:18:17.880Z,76.17
2018-12-31T15:26:56.022Z,77.72
2018-12-31T15:32:01.481Z,78.83
2018-12-31T15:37:05.615Z,78.89
2018-12-31T15:42:09.657Z,79.57
2018-12-31T15:47:13.946Z,79.11
2018-12-31T15:52:18.526Z,79.87
2018-12-31T15:57:23.568Z,79.04
2018-12-31T16:02:27.919Z,78.88
2018-12-31T16:07:32.148Z,79.68
2018-12-31T16:12:36.256Z,79.41
2018-12-31T16:17:41.278Z,79.33
2018-12-31T16:22:45.557Z,79.91
2018-12-31T16:27:50.646Z,79.88
2018-12-31T16:32:54.928Z,80.92
2018-12-31T16:37:59.169Z,82.72
2018-12-31T16:43:03.246Z,83.87
2018-12-31T16:48:07.763Z,84.01
2018-12-31T16:53:11.814Z,83.92
2018-12-31T16:58:16.393Z,84.53
2018-12-31T17:03:20.326Z,84.21
2018-12-31T17:08:24.936Z,83.80
2018-12-31T17:13:29.100Z,82.43
2018-12-31T17:18:33.060Z,83.71
2018-12-31T17:23:37.016Z,83.15
2018-12-31T17:28:41.236Z,83.46
2018-12-31T17:33:45.724Z,83.76
2018-12-31T17:38:49.618Z,84.33
2018-12-31T17:43:54.463Z,84.92
2018-12-31T17:48:58.403Z,83.67
2018-12-31T17:54:02.483Z,84.60
2018-12-31T17:59:07.381Z,84.17
2018-12-31T18:04:11.314Z,84.97
2018-12-31T18:09:15.226Z,85.63
2018-12-31T18:14:19.329Z,85.75
2018-12-31T18:19:23.553Z,84.76
2018-12-31T18:24:28.384Z,83.60
2018-12-31T18:29:32.383Z,83.60
2018-12-31T18:34:36.936Z,84.24
2018-12-31T18:39:40.995Z,84.08
2018-12-31T18:44:44.947Z,84.23
2018-12-31T18:49:49.124Z,85.16
2018-12-31T18:54:53.186Z,84.65
2018-12-31T18:59:57.214Z,84.37
2018-12-31T19:05:01.781Z,84.60
2018-12-31T19:10:05.723Z,84.45
2018-12-31T19:15:11.813Z,83.92
2018-12-31T19:20:16.186Z,84.66
2018-12-31T19:25:20.536Z,83.97
2018-12-31T19:30:24.451Z,84.13
2018-12-31T19:35:29.252Z,84.39
2018-12-31T19:40:33.923Z,84.75
2018-12-31T19:45:37.965Z,84.51
2018-12-31T19:50:42.064Z,84.58
2018-12-31T19:55:45.987Z,84.61
2018-12-31T20:00:50.115Z,85.93
2018-12-31T20:05:53.997Z,84.95
2018-12-31T20:10:58.679Z,85.19
2018-12-31T20:16:02.642Z,85.60
2018-12-31T20:21:06.611Z,85.84
2018-12-31T20:26:10.470Z,85.52
2018-12-31T20:31:14.765Z,85.98
2018-12-31T20:36:19.312Z,86.19
2018-12-31T20:41:23.535Z,85.45
2018-12-31T20:46:27.577Z,85.50
2018-12-31T20:51:31.988Z,85.93
2018-12-31T20:56:35.893Z,86.57
2018-12-31T21:01:39.797Z,86.59
2018-12-31T21:06:43.729Z,86.50
2018-12-31T21:11:47.753Z,86.93
2018-12-31T21:16:51.848Z,86.55
2018-12-31T21:21:55.832Z,87.06
2018-12-31T21:27:01.147Z,87.18
2018-12-31T21:32:05.134Z,87.25
2018-12-31T21:37:09.615Z,87.34
2018-12-31T21:42:13.643Z,87.54
2018-12-31T21:47:17.739Z,88.00
2018-12-31T21:52:21.573Z,88.05
2018-12-31T21:57:25.652Z,88.83
2018-12-31T22:02:29.437Z,89.46
2018-12-31T22:07:33.837Z,89.34
2018-12-31T22:12:37.699Z,90.12
2018-12-31T22:17:42.102Z,89.68
2018-12-31T22:22:46.172Z,89.88
2018-12-31T22:27:50.099Z,89.88
2018-12-31T22:32:54.088Z,90.06
2018-12-31T22:37:58.364Z,90.20
2018-12-31T22:43:02.560Z,89.04
2018-12-31T22:48:06.921Z,89.14
2018-12-31T22:53:11.011Z,88.83
2018-12-31T22:58:14.920Z,88.75
2018-12-31T23:03:18.821Z,88.14
2018-12-31T23:08:22.846Z,87.01
2018-12-31T23:13:30.350Z,86.95
2018-12-31T23:18:34.410Z,86.92
2018-12-31T23:23:38.657Z,85.47
2018-12-31T23:28:42.933Z,85.14
2018-12-31T23:33:46.958Z,84.58
2018-12-31T23:38:51.144Z,84.13
2018-12-31T23:43:55.057Z,83.80
2018-12-31T23:48:59.223Z,83.66
2018-12-31T23:54:03.175Z,84.65
2018-12-31T23:59:07.379Z,84.24
